Time;durP1;ratioP1;P1;durP2;ratioP2;P2;SDS_P1;SDS_P2;PMS_P1;PMS_P2;Temp;Humidity;BMP_temperature;BMP_pressure;BME280_temperature;BME280_humidity;BME280_pressure;Samples;Min_cycle;Max_cycle;Signal;HPM_P1;HPM_P2
2021/04/28 00:01:49;;;;;;;4.50;2.63;;;9.10;99.90;;;8.47;76.92;99928.13;5063575;28;20036;-45
2021/04/28 00:04:15;;;;;;;2.72;2.42;;;9.00;99.90;;;8.45;77.42;99929.25;5066759;28;20025;-46
2021/04/28 00:06:41;;;;;;;3.30;2.58;;;9.10;99.90;;;8.37;77.34;99932.53;5068788;28;20477;-48
2021/04/28 00:09:08;;;;;;;3.03;2.08;;;9.00;99.90;;;8.30;77.75;99929.66;5064359;28;20392;-44
2021/04/28 00:11:35;;;;;;;2.88;1.90;;;8.90;99.90;;;8.26;78.12;99925.72;5068532;28;20059;-44
2021/04/28 00:14:04;;;;;;;3.53;1.75;;;8.80;99.90;;;8.31;77.82;99925.28;5067225;28;20384;-47
2021/04/28 00:16:32;;;;;;;2.25;1.75;;;8.90;99.90;;;8.31;77.46;99915.72;5068417;28;20377;-50
2021/04/28 00:18:59;;;;;;;3.20;2.00;;;8.90;99.90;;;8.34;77.79;99924.22;5067219;28;20376;-49
2021/04/28 00:21:25;;;;;;;2.20;1.70;;;8.90;99.90;;;8.31;77.80;99920.94;5068165;28;20036;-46
2021/04/28 00:23:50;;;;;;;2.28;1.85;;;8.90;99.90;;;8.28;77.98;99923.81;5068509;28;20035;-48
2021/04/28 00:26:16;;;;;;;2.88;1.77;;;8.90;99.90;;;8.23;78.10;99926.00;5067052;28;20048;-51
2021/04/28 00:28:44;;;;;;;2.75;1.92;;;8.90;99.90;;;8.26;78.13;99925.72;5050212;28;20261;-46
2021/04/28 00:31:11;;;;;;;3.00;2.00;;;8.90;99.90;;;8.25;78.28;99912.88;5067105;28;20043;-43
2021/04/28 00:33:37;;;;;;;2.85;1.65;;;8.90;99.90;;;8.24;78.09;99914.66;5067277;28;20035;-43
2021/04/28 00:36:04;;;;;;;2.28;1.27;;;8.80;99.90;;;8.26;78.04;99917.13;5067315;28;20434;-45
2021/04/28 00:38:31;;;;;;;2.35;1.85;;;8.80;99.90;;;8.23;78.39;99915.63;5062686;28;20442;-48
2021/04/28 00:40:58;;;;;;;2.10;1.70;;;8.80;99.90;;;8.20;78.86;99915.91;5066722;28;20096;-45
2021/04/28 00:43:24;;;;;;;2.40;1.70;;;8.80;99.90;;;8.16;78.86;99913.75;5050190;28;20028;-44
2021/04/28 00:45:50;;;;;;;2.17;1.80;;;8.80;99.90;;;8.14;78.96;99906.09;5067350;28;20048;-43
2021/04/28 00:48:17;;;;;;;1.90;1.60;;;8.70;99.90;;;8.13;78.90;99906.25;5067228;28;20044;-48
2021/04/28 00:50:47;;;;;;;2.17;1.60;;;8.70;99.90;;;8.15;78.69;99892.16;5051923;28;20568;-45
2021/04/28 00:53:16;;;;;;;4.13;1.65;;;8.80;99.90;;;8.16;78.85;99893.78;5048190;28;20218;-46
2021/04/28 00:55:43;;;;;;;2.22;1.75;;;8.70;99.90;;;8.16;78.44;99893.78;5051699;28;20044;-45
2021/04/28 00:58:09;;;;;;;2.72;1.90;;;8.70;99.90;;;8.18;79.01;99889.28;5067709;28;20028;-45
2021/04/28 01:00:36;;;;;;;2.83;2.13;;;8.70;99.90;;;8.17;78.67;99895.44;5066597;28;20488;-43
2021/04/28 01:03:03;;;;;;;5.05;1.80;;;8.80;99.90;;;8.15;78.79;99902.53;5066787;28;20542;-44
2021/04/28 01:05:29;;;;;;;2.70;1.70;;;8.70;99.90;;;8.16;79.23;99899.00;5067118;28;20109;-45
2021/04/28 01:07:57;;;;;;;2.72;1.60;;;8.70;99.90;;;8.17;79.50;99899.81;5067774;28;20028;-44
2021/04/28 01:10:32;;;;;;;1.88;1.40;;;8.70;99.90;;;8.18;79.36;99901.44;5048496;28;20504;-47
2021/04/28 01:12:59;;;;;;;3.38;1.20;;;8.80;99.90;;;8.15;78.94;99894.75;5067707;28;20024;-45
2021/04/28 01:15:31;;;;;;;3.30;1.15;;;8.70;99.90;;;8.16;79.20;99901.59;5066556;28;20082;-46
2021/04/28 01:17:59;;;;;;;2.03;1.05;;;8.70;99.90;;;8.18;79.11;99896.25;5067638;28;20029;-44
2021/04/28 01:20:27;;;;;;;3.17;1.30;;;8.70;99.90;;;8.16;79.09;99892.97;5066677;28;20033;-45
2021/04/28 01:22:54;;;;;;;1.90;1.10;;;8.70;99.90;;;8.19;79.19;99890.91;5067639;28;20032;-46
2021/04/28 01:25:24;;;;;;;2.97;1.73;;;8.70;99.90;;;8.22;79.02;99885.44;5065467;28;20366;-47
2021/04/28 01:28:05;;;;;;;2.28;1.70;;;8.80;99.90;;;8.22;79.02;99879.44;5066187;28;20029;-43
2021/04/28 01:30:38;;;;;;;2.97;1.33;;;8.80;99.90;;;8.24;78.61;99883.53;5065102;28;20102;-44
2021/04/28 01:33:12;;;;;;;3.08;1.85;;;8.80;99.90;;;8.28;77.90;99877.09;5061903;28;20381;-44
2021/04/28 01:35:39;;;;;;;3.70;1.77;;;8.80;99.90;;;8.31;78.00;99882.00;5049361;28;20036;-44
2021/04/28 01:38:07;;;;;;;1.77;1.33;;;8.90;99.90;;;8.39;77.58;99870.94;5049503;28;20235;-44
2021/04/28 01:40:36;;;;;;;2.25;1.70;;;8.90;99.90;;;8.43;77.56;99881.84;5048202;28;20131;-48
2021/04/28 01:43:03;;;;;;;2.00;1.45;;;9.00;99.90;;;8.41;77.96;99876.78;5029665;28;20457;-47
2021/04/28 01:45:33;;;;;;;2.20;1.50;;;8.90;99.90;;;8.44;77.93;99875.69;5038397;28;20089;-45
2021/04/28 01:48:03;;;;;;;2.53;1.73;;;9.00;99.90;;;8.39;78.06;99876.13;5045992;28;20035;-44
2021/04/28 01:50:30;;;;;;;3.85;1.80;;;9.00;99.90;;;8.35;78.41;99879.97;5063477;28;20098;-45
2021/04/28 01:52:57;;;;;;;3.97;1.80;;;9.00;99.90;;;8.36;78.47;99876.41;5041771;28;20041;-47
2021/04/28 01:55:23;;;;;;;3.03;1.63;;;8.90;99.90;;;8.41;78.20;99869.00;5047066;28;20048;-45
2021/04/28 01:57:49;;;;;;;4.00;2.08;;;9.00;99.90;;;8.40;78.51;99874.34;5047286;28;20468;-45
2021/04/28 02:00:20;;;;;;;4.97;1.40;;;9.00;99.90;;;8.38;78.81;99865.88;5048495;28;20041;-48
2021/04/28 02:02:47;;;;;;;2.30;1.80;;;9.00;99.90;;;8.34;78.96;99854.97;5064617;28;20029;-44
2021/04/28 02:05:14;;;;;;;2.50;1.75;;;8.90;99.90;;;8.34;79.15;99849.78;5053055;28;20113;-46
2021/04/28 02:07:42;;;;;;;2.75;1.27;;;8.90;99.90;;;8.35;79.30;99842.81;5069913;28;20032;-45
2021/04/28 02:10:10;;;;;;;1.75;1.08;;;8.90;99.90;;;8.34;78.49;99854.97;5053191;28;20103;-46
2021/04/28 02:12:36;;;;;;;3.67;1.38;;;8.90;99.90;;;8.31;78.70;99840.47;5052500;28;20472;-47
2021/04/28 02:15:09;;;;;;;2.00;1.40;;;8.90;99.90;;;8.30;79.11;99849.22;5058316;28;20080;-49
2021/04/28 02:17:36;;;;;;;1.50;0.98;;;8.90;99.90;;;8.21;78.97;99842.28;5053490;28;20107;-45
2021/04/28 02:20:08;;;;;;;1.75;1.23;;;8.90;99.90;;;8.21;78.73;99837.09;5069741;28;20626;-44
2021/04/28 02:22:37;;;;;;;4.93;1.80;;;8.80;99.90;;;8.25;78.84;99830.66;5056380;28;20378;-43
2021/04/28 02:25:05;;;;;;;3.53;1.13;;;8.90;99.90;;;8.21;78.76;99831.91;5037341;28;20033;-45
2021/04/28 02:27:31;;;;;;;2.95;1.25;;;8.80;99.90;;;8.18;79.15;99818.41;5052650;28;20100;-44
2021/04/28 02:29:57;;;;;;;3.20;1.65;;;8.80;99.90;;;8.18;79.44;99824.41;5066640;28;20039;-47
2021/04/28 02:32:23;;;;;;;5.07;1.58;;;8.80;99.90;;;8.12;79.71;99824.97;5069751;28;20495;-45
2021/04/28 02:34:49;;;;;;;3.08;1.50;;;8.70;99.90;;;8.09;80.11;99821.84;5051887;28;20563;-44
2021/04/28 02:37:19;;;;;;;2.03;1.10;;;8.70;99.90;;;8.07;80.37;99821.19;5070612;28;20170;-47
2021/04/28 02:39:54;;;;;;;1.13;0.90;;;8.60;99.90;;;8.11;79.65;99815.56;5068795;28;20055;-44
2021/04/28 02:42:22;;;;;;;2.47;0.65;;;8.60;99.90;;;8.12;79.31;99816.38;5049677;28;20099;-44
2021/04/28 02:44:48;;;;;;;1.50;1.02;;;8.70;99.90;;;8.14;79.01;99823.06;5070545;28;20471;-45
2021/04/28 02:47:15;;;;;;;2.08;0.80;;;8.70;99.90;;;8.10;79.55;99819.13;5051222;28;20036;-44
2021/04/28 02:49:44;;;;;;;1.30;0.88;;;8.70;99.90;;;8.11;79.42;99818.16;5070218;28;20043;-46
2021/04/28 02:52:11;;;;;;;1.30;0.73;;;8.70;99.90;;;8.09;79.70;99824.44;5069273;28;20434;-45
2021/04/28 02:54:40;;;;;;;1.50;0.60;;;8.70;99.90;;;8.08;79.69;99813.25;5052219;28;20028;-46
2021/04/28 02:57:07;;;;;;;1.27;0.70;;;8.70;99.90;;;8.13;79.10;99813.66;5066037;28;20032;-46
2021/04/28 02:59:33;;;;;;;1.00;0.60;;;8.70;99.90;;;8.13;79.24;99816.25;5052097;28;20470;-45
2021/04/28 03:01:59;;;;;;;1.27;0.60;;;8.70;99.90;;;8.10;79.21;99813.94;5069395;28;20045;-44
2021/04/28 03:04:26;;;;;;;1.60;0.93;;;8.70;99.90;;;8.08;78.78;99813.25;5051161;28;20161;-45
2021/04/28 03:06:52;;;;;;;16.10;1.52;;;8.70;99.90;;;8.05;79.14;99810.13;5045558;28;20618;-45
2021/04/28 03:11:54;;;;;;;4.63;1.15;;;8.60;99.90;;;7.95;79.72;99816.22;4879701;26;20383;-42
2021/04/28 03:14:20;;;;;;;1.25;0.80;;;8.60;99.90;;;8.02;79.62;99813.03;5051280;28;20557;-44
2021/04/28 03:16:46;;;;;;;1.42;1.13;;;8.60;99.90;;;7.99;79.62;99817.56;5050304;28;20029;-48
2021/04/28 03:19:12;;;;;;;4.85;1.02;;;8.60;99.90;;;7.96;79.48;99814.44;5047776;28;20068;-45
2021/04/28 03:21:43;;;;;;;1.65;0.65;;;8.60;99.90;;;7.92;80.17;99818.28;5066046;28;20122;-44
2021/04/28 03:24:10;;;;;;;5.93;0.93;;;8.60;99.90;;;7.91;79.76;99803.66;5051458;28;20415;-45
2021/04/28 03:26:36;;;;;;;2.10;1.05;;;8.50;99.90;;;7.89;80.09;99808.19;5068422;28;20028;-44
2021/04/28 03:29:03;;;;;;;1.38;1.00;;;8.50;99.90;;;7.87;80.13;99804.91;5051280;28;20035;-42
2021/04/28 03:31:29;;;;;;;4.85;1.30;;;8.50;99.90;;;7.82;80.23;99807.13;5067423;28;20037;-42
2021/04/28 03:33:55;;;;;;;1.60;1.30;;;8.40;99.90;;;7.84;80.45;99810.38;5050993;28;20572;-44
2021/04/28 03:36:21;;;;;;;3.20;1.30;;;8.50;99.90;;;7.83;80.65;99816.53;5055640;28;20045;-49
2021/04/28 03:38:47;;;;;;;1.65;0.95;;;8.40;99.90;;;7.78;80.74;99810.94;5048757;28;20033;-46
2021/04/28 03:41:14;;;;;;;3.47;1.35;;;8.40;99.90;;;7.73;81.06;99807.97;5050194;28;20045;-45
2021/04/28 03:43:40;;;;;;;22.40;2.10;;;8.40;99.90;;;7.72;81.24;99817.50;5065310;28;20123;-44
2021/04/28 03:46:07;;;;;;;11.77;2.30;;;8.30;99.90;;;7.71;81.50;99815.06;5068910;28;20139;-42
2021/04/28 03:48:33;;;;;;;14.82;1.77;;;8.30;99.90;;;7.66;81.42;99816.31;5049943;28;20040;-43
2021/04/28 03:50:59;;;;;;;2.35;1.85;;;8.30;99.90;;;7.63;81.69;99813.16;5068601;28;20033;-43
2021/04/28 03:53:25;;;;;;;13.43;2.83;;;8.20;99.90;;;7.58;81.56;99815.38;5067276;28;20575;-45
2021/04/28 03:55:51;;;;;;;9.23;2.13;;;8.20;99.90;;;7.59;81.67;99815.22;5067702;28;20085;-47
2021/04/28 03:58:17;;;;;;;56.58;5.80;;;8.20;99.90;;;7.61;81.56;99821.09;5067074;28;20452;-45
2021/04/28 04:00:42;;;;;;;35.60;3.38;;;8.20;99.90;;;7.53;82.01;99823.59;5068938;28;20032;-47
2021/04/28 04:03:08;;;;;;;39.13;3.67;;;8.20;99.90;;;7.49;81.74;99817.06;5067542;28;20029;-46
2021/04/28 04:05:35;;;;;;;22.92;3.78;;;8.10;99.90;;;7.47;82.17;99824.16;5068394;28;20048;-43
2021/04/28 04:08:00;;;;;;;22.17;3.45;;;8.10;99.90;;;7.47;82.22;99821.56;5067116;28;20118;-45
2021/04/28 04:10:26;;;;;;;41.17;3.97;;;8.10;99.90;;;7.46;82.01;99824.28;5068158;28;20056;-45
2021/04/28 04:12:52;;;;;;;44.13;6.18;;;8.20;99.90;;;7.53;82.01;99821.00;5048730;28;20483;-44
2021/04/28 04:15:18;;;;;;;59.05;5.82;;;8.20;99.90;;;7.55;81.36;99821.69;5068126;28;20059;-45
2021/04/28 04:17:44;;;;;;;67.10;8.23;;;8.30;99.90;;;7.61;81.59;99828.88;5067299;28;20099;-48
2021/04/28 04:20:11;;;;;;;44.47;7.70;;;8.30;99.90;;;7.74;81.33;99817.38;5068112;28;20047;-48
2021/04/28 04:22:38;;;;;;;42.67;5.35;;;8.40;99.90;;;7.87;80.45;99820.47;5066505;28;20083;-44
2021/04/28 04:25:07;;;;;;;28.05;5.10;;;8.60;99.90;;;8.01;80.17;99829.56;5067983;28;20037;-45
2021/04/28 04:27:34;;;;;;;18.67;4.07;;;8.70;99.90;;;8.09;79.83;99827.03;5066662;28;20090;-45
2021/04/28 04:30:03;;;;;;;20.17;4.85;;;8.80;99.90;;;8.14;80.17;99830.84;5067697;28;20036;-43
2021/04/28 04:32:29;;;;;;;26.33;3.45;;;8.90;99.90;;;8.76;79.38;99818.06;5047090;28;20052;-43
2021/04/28 04:34:55;;;;;;;21.27;2.63;;;9.50;99.90;;;10.13;75.55;99820.72;5064350;28;20024;-43
2021/04/28 04:37:21;;;;;;;7.88;2.53;;;11.10;99.90;;;11.18;71.45;99827.09;5067256;28;20135;-43
2021/04/28 04:39:47;;;;;;;4.53;1.35;;;12.60;99.90;;;11.79;69.04;99820.50;5048795;28;20041;-44
2021/04/28 04:42:13;;;;;;;6.50;1.30;;;13.70;99.90;;;11.84;68.36;99826.03;5066127;28;20487;-43
2021/04/28 04:44:39;;;;;;;7.90;1.90;;;13.80;99.90;;;11.43;69.15;99823.47;5067619;28;20036;-43
2021/04/28 04:47:05;;;;;;;3.03;1.30;;;13.20;99.90;;;11.21;69.62;99829.38;5066801;28;20114;-44
2021/04/28 04:49:31;;;;;;;1.98;1.17;;;12.80;99.90;;;10.98;70.37;99835.25;5067397;28;20192;-46
2021/04/28 04:51:58;;;;;;;4.45;1.38;;;12.50;99.90;;;11.59;69.14;99826.06;5066850;28;20046;-44
2021/04/28 04:54:24;;;;;;;7.82;0.93;;;13.20;99.90;;;12.72;66.11;99823.97;5067549;28;20487;-45
2021/04/28 04:56:51;;;;;;;3.72;1.08;;;14.60;99.60;;;13.77;62.89;99824.03;5064767;28;20141;-45
2021/04/28 04:59:17;;;;;;;1.15;0.60;;;16.00;94.00;;;14.24;61.11;99823.63;5067233;28;20035;-43
2021/04/28 05:01:43;;;;;;;3.17;0.80;;;16.80;90.10;;;13.96;61.54;99826.09;5065404;28;20183;-50
2021/04/28 05:04:09;;;;;;;2.10;0.73;;;16.40;88.10;;;13.89;61.75;99827.81;5062713;28;20043;-44
2021/04/28 05:06:34;;;;;;;4.88;1.20;;;16.00;90.20;;;13.96;61.55;99833.97;5066579;28;20106;-44
2021/04/28 05:09:00;;;;;;;5.55;0.77;;;16.10;89.50;;;14.21;60.84;99830.03;5066193;28;20060;-46
2021/04/28 05:11:26;;;;;;;3.63;0.70;;;16.40;88.20;;;14.93;59.34;99824.78;5064887;28;20080;-44
2021/04/28 05:13:52;;;;;;;3.20;0.60;;;17.30;84.70;;;16.18;55.98;99830.06;5066991;28;20059;-44
2021/04/28 05:16:18;;;;;;;2.00;0.63;;;19.10;75.50;;;16.91;53.76;99827.66;5062344;28;20036;-44
2021/04/28 05:18:44;;;;;;;5.65;0.65;;;20.30;68.90;;;17.71;51.77;99828.44;5034892;28;20037;-44
2021/04/28 05:21:10;;;;;;;31.58;2.10;;;21.20;64.60;;;17.85;51.25;99832.66;5067000;28;20032;-44
2021/04/28 05:23:36;;;;;;;6.72;0.60;;;21.90;61.20;;;18.15;50.07;99820.59;5066432;28;20028;-44
2021/04/28 05:26:02;;;;;;;12.90;0.70;;;22.20;58.70;;;18.68;48.93;99830.09;5066590;28;20043;-45
2021/04/28 05:28:28;;;;;;;20.63;1.00;;;22.50;57.20;;;19.38;47.20;99818.38;5067054;28;20020;-44
2021/04/28 05:30:54;;;;;;;18.30;1.15;;;23.20;55.80;;;19.81;46.32;99822.88;5066923;28;20408;-45
2021/04/28 05:33:20;;;;;;;8.10;0.52;;;23.90;53.70;;;20.28;45.39;99829.22;5066886;28;20119;-44
2021/04/28 05:35:46;;;;;;;7.72;0.63;;;24.30;53.20;;;21.18;43.32;99821.22;5072575;28;20032;-47
2021/04/28 05:38:12;;;;;;;1.42;0.70;;;25.10;51.20;;;21.18;42.81;99818.56;5073803;28;20083;-47
2021/04/28 05:40:38;;;;;;;6.93;0.88;;;25.60;49.50;;;21.29;42.59;99816.97;5073652;28;20063;-46
2021/04/28 05:43:04;;;;;;;3.72;0.85;;;25.70;49.00;;;20.48;44.27;99824.50;5072364;28;20040;-45
2021/04/28 05:45:41;;;;;;;8.65;1.38;;;24.60;51.10;;;20.47;44.30;99824.72;5072633;28;20499;-46
2021/04/28 05:48:09;;;;;;;3.08;0.75;;;24.40;51.10;;;19.00;47.04;99834.31;5071380;28;20033;-45
2021/04/28 05:50:35;;;;;;;5.30;1.20;;;23.00;53.20;;;17.87;49.11;99833.28;5071881;28;20119;-46
2021/04/28 05:53:01;;;;;;;3.20;0.80;;;21.30;55.90;;;17.01;51.26;99832.53;5073535;28;20114;-44
2021/04/28 05:55:27;;;;;;;3.72;1.05;;;19.80;59.40;;;16.12;53.10;99830.84;5073678;28;20620;-46
2021/04/28 05:57:53;;;;;;;9.13;1.30;;;18.50;62.60;;;15.49;54.68;99827.44;5073512;28;20068;-47
2021/04/28 06:00:20;;;;;;;6.10;1.05;;;17.70;64.70;;;16.31;52.84;99839.81;5073561;28;20131;-49
2021/04/28 06:02:46;;;;;;;1.70;0.73;;;18.40;63.90;;;18.05;48.37;99830.75;5073209;28;20039;-48
2021/04/28 06:05:12;;;;;;;2.58;0.57;;;21.00;57.20;;;19.52;44.71;99830.47;5073731;28;20036;-50
2021/04/28 06:07:39;;;;;;;1.33;0.50;;;23.30;52.30;;;20.79;42.11;99839.34;5073520;28;20040;-47
2021/04/28 06:10:06;;;;;;;1.27;0.47;;;25.00;48.90;;;21.53;40.54;99834.47;5073135;28;20341;-47
2021/04/28 06:12:33;;;;;;;1.25;0.40;;;26.00;47.20;;;21.84;39.64;99838.59;5073400;28;20454;-47
2021/04/28 06:14:59;;;;;;;0.32;0.20;;;26.40;46.10;;;21.69;39.51;99848.88;5055308;28;20101;-46
2021/04/28 06:17:25;;;;;;;1.42;0.30;;;26.50;44.90;;;21.57;39.70;99842.78;5073372;28;20144;-46
2021/04/28 06:19:51;;;;;;;0.50;0.20;;;26.30;45.50;;;21.78;39.32;99834.22;5073238;28;20064;-48
2021/04/28 06:22:17;;;;;;;0.60;0.20;;;26.50;45.30;;;22.14;38.67;99841.13;5073216;28;20123;-44
2021/04/28 06:24:43;;;;;;;0.85;0.20;;;26.80;44.20;;;22.38;37.97;99836.50;5073327;28;20040;-47
2021/04/28 06:27:09;;;;;;;1.88;0.13;;;27.00;43.90;;;21.53;39.53;99837.94;5073178;28;20070;-44
2021/04/28 06:29:35;;;;;;;0.40;0.20;;;25.90;45.30;;;19.97;41.12;99846.06;5072733;28;20064;-45
2021/04/28 06:32:01;;;;;;;0.50;0.20;;;23.90;46.90;;;19.66;42.29;99843.56;5073196;28;20093;-46
2021/04/28 06:34:27;;;;;;;1.42;0.20;;;23.10;49.20;;;18.93;43.75;99835.41;5073054;28;20089;-47
2021/04/28 06:36:54;;;;;;;0.57;0.25;;;22.00;51.00;;;18.09;44.96;99839.06;5070604;28;20113;-46
2021/04/28 06:39:19;;;;;;;0.50;0.20;;;20.70;53.20;;;17.39;46.26;99845.88;5068615;28;20032;-45
2021/04/28 06:41:45;;;;;;;1.45;0.90;;;19.40;55.80;;;17.05;46.72;99834.53;5072783;28;20072;-45
2021/04/28 06:44:12;;;;;;;7.13;1.17;;;18.70;57.40;;;17.28;46.68;99838.59;5072629;28;20056;-48
2021/04/28 06:46:38;;;;;;;0.73;0.20;;;18.60;58.50;;;17.12;46.75;99840.63;5069978;28;20145;-52
2021/04/28 06:49:04;;;;;;;5.18;0.55;;;18.50;58.50;;;17.22;46.79;99840.22;5069652;28;20467;-50
2021/04/28 06:51:30;;;;;;;1.70;0.40;;;18.50;59.30;;;17.08;47.38;99844.66;5069655;28;20043;-51
2021/04/28 06:54:00;;;;;;;3.08;0.20;;;18.40;59.70;;;17.24;47.10;99846.09;5069591;28;20555;-50
2021/04/28 06:56:27;;;;;;;0.30;0.20;;;18.40;60.10;;;17.30;46.87;99847.91;5069542;28;20099;-48
2021/04/28 06:58:53;;;;;;;1.13;0.20;;;18.40;59.90;;;17.37;46.40;99848.72;5069390;28;20651;-50
2021/04/28 07:01:21;;;;;;;1.80;0.10;;;18.40;59.60;;;17.27;46.57;99848.31;5069561;28;20039;-50
2021/04/28 07:03:47;;;;;;;11.10;0.28;;;18.50;59.50;;;17.36;46.59;99847.09;5069602;28;20052;-45
2021/04/28 07:06:13;;;;;;;0.63;0.10;;;18.50;59.50;;;17.83;45.99;99850.50;5068753;28;20052;-45
2021/04/28 07:08:39;;;;;;;1.52;0.10;;;18.80;59.60;;;17.97;45.68;99854.72;5069462;28;20033;-48
2021/04/28 07:11:08;;;;;;;0.50;0.20;;;19.10;59.10;;;18.10;45.25;99851.22;5068002;28;20107;-53
2021/04/28 07:13:34;;;;;;;2.38;0.20;;;19.20;58.70;;;18.30;45.53;99854.63;5067234;28;20033;-46
2021/04/28 07:16:00;;;;;;;0.50;0.20;;;19.50;59.20;;;18.32;45.46;99849.94;5066732;28;20445;-52
2021/04/28 07:18:26;;;;;;;2.63;0.22;;;19.50;59.10;;;18.33;45.52;99843.66;5068280;28;20124;-49
2021/04/28 07:20:52;;;;;;;0.68;0.20;;;19.50;59.10;;;18.35;45.05;99856.63;5069021;28;20043;-52
2021/04/28 07:23:18;;;;;;;0.55;0.20;;;19.60;58.40;;;18.05;45.23;99846.56;5069804;28;20031;-51
2021/04/28 07:25:44;;;;;;;1.40;0.20;;;19.40;57.80;;;18.03;45.36;99850.44;5068977;28;20428;-51
2021/04/28 07:28:10;;;;;;;6.22;0.30;;;19.30;58.40;;;18.04;45.44;99844.16;5069465;28;20431;-47
2021/04/28 07:30:36;;;;;;;0.90;0.20;;;19.20;58.90;;;18.57;44.67;99850.81;5069213;28;20479;-51
2021/04/28 07:33:04;;;;;;;0.75;0.20;;;19.40;59.10;;;19.10;43.83;99854.97;5068953;28;20033;-51
2021/04/28 07:35:30;;;;;;;1.30;0.20;;;20.00;58.20;;;19.26;43.56;99851.81;5068954;28;20495;-51
2021/04/28 07:37:57;;;;;;;0.38;0.17;;;20.40;57.30;;;19.00;43.67;99854.63;5068935;28;20090;-52
2021/04/28 07:40:23;;;;;;;0.98;0.20;;;20.30;57.10;;;19.27;43.00;99853.44;5068490;28;20135;-45
2021/04/28 07:42:50;;;;;;;4.00;0.30;;;20.50;56.80;;;19.28;42.41;99867.44;5068825;28;20434;-45
2021/04/28 07:45:18;;;;;;;1.60;0.30;;;20.60;55.80;;;19.17;42.64;99861.03;5069013;28;20036;-46
2021/04/28 07:47:44;;;;;;;5.40;0.20;;;20.40;55.90;;;18.88;43.57;99863.25;5068669;28;20568;-46
2021/04/28 07:50:12;;;;;;;2.95;0.20;;;20.10;56.90;;;18.93;43.46;99864.44;5068964;28;20434;-45
2021/04/28 07:52:39;;;;;;;6.78;0.40;;;20.10;57.00;;;19.15;43.52;99861.22;5068868;28;20024;-45
2021/04/28 07:55:06;;;;;;;3.38;0.20;;;20.30;57.20;;;19.44;43.15;99866.88;5068518;28;20491;-45
2021/04/28 07:57:32;;;;;;;2.25;0.10;;;20.40;57.20;;;19.79;42.23;99868.03;5068228;28;20119;-47
2021/04/28 07:59:58;;;;;;;0.73;0.17;;;20.80;56.80;;;19.81;41.93;99863.31;5068437;28;20414;-48
2021/04/28 08:02:24;;;;;;;2.08;0.17;;;20.90;55.90;;;19.64;41.83;99869.38;5068650;28;20130;-46
2021/04/28 08:04:50;;;;;;;0.60;0.10;;;20.80;55.60;;;19.57;41.78;99871.28;5068356;28;20484;-45
2021/04/28 08:07:16;;;;;;;8.18;0.28;;;20.70;55.70;;;19.69;41.27;99875.63;5068200;28;20083;-45
2021/04/28 08:09:45;;;;;;;0.30;0.10;;;20.70;55.00;;;19.94;40.95;99880.84;5068376;28;20036;-45
2021/04/28 08:12:12;;;;;;;2.92;0.10;;;20.90;55.50;;;20.68;40.12;99871.88;5068024;28;20048;-45
2021/04/28 08:14:38;;;;;;;0.65;0.10;;;21.50;55.00;;;21.05;39.39;99874.38;5068168;28;20081;-48
2021/04/28 08:17:04;;;;;;;0.50;0.20;;;22.00;54.10;;;21.56;38.65;99880.94;5068165;28;20059;-49
2021/04/28 08:19:30;;;;;;;0.77;0.20;;;22.40;53.70;;;21.58;38.28;99884.16;5068194;28;20491;-46
2021/04/28 08:21:56;;;;;;;1.35;0.10;;;22.70;52.80;;;21.31;38.28;99878.47;5049937;28;20074;-46
2021/04/28 08:24:23;;;;;;;1.27;0.10;;;22.30;52.90;;;20.43;39.88;99881.75;5068195;28;20056;-47
2021/04/28 08:26:50;;;;;;;0.77;0.13;;;21.80;53.60;;;20.49;40.12;99884.31;5050152;28;20061;-50
2021/04/28 08:29:16;;;;;;;7.97;0.20;;;21.70;53.70;;;20.38;40.97;99885.06;5068116;28;20052;-47
2021/04/28 08:31:42;;;;;;;16.48;1.52;;;21.60;54.50;;;20.53;41.53;99889.97;5067780;28;20889;-47
2021/04/28 08:34:08;;;;;;;0.63;0.13;;;21.50;55.80;;;21.03;40.26;99889.69;5065092;28;20163;-53
2021/04/28 08:36:35;;;;;;;7.18;0.10;;;21.90;55.20;;;20.96;40.20;99883.69;5065248;28;20063;-50
2021/04/28 08:39:08;;;;;;;1.10;0.20;;;21.90;54.70;;;20.78;40.65;99890.66;5070623;28;20506;-50
2021/04/28 08:41:38;;;;;;;1.23;0.10;;;21.70;55.60;;;20.59;41.37;99890.91;5074177;28;20048;-49
2021/04/28 08:44:08;;;;;;;0.57;0.10;;;21.40;56.40;;;20.62;40.37;99879.88;5087707;28;20036;-50
2021/04/28 08:46:37;;;;;;;1.10;0.10;;;21.40;55.90;;;20.47;40.97;99877.63;5087814;28;20511;-49
2021/04/28 08:49:07;;;;;;;2.97;0.30;;;21.20;56.40;;;20.91;40.33;99879.06;5087545;28;20031;-49
2021/04/28 08:51:35;;;;;;;0.35;0.10;;;21.50;56.30;;;21.05;40.24;99880.47;5052154;28;20036;-48
2021/04/28 08:54:02;;;;;;;1.33;0.10;;;21.60;56.10;;;21.17;39.78;99888.47;5066958;28;20098;-47
2021/04/28 08:56:28;;;;;;;1.85;0.10;;;21.80;55.80;;;20.59;40.54;99891.72;5052835;28;20447;-45
2021/04/28 08:58:55;;;;;;;0.43;0.10;;;21.40;55.60;;;20.50;40.36;99888.56;5029620;28;20045;-47
2021/04/28 09:01:33;;;;;;;0.65;0.20;;;21.20;56.00;;;20.30;40.89;99887.19;5066351;28;20064;-49
2021/04/28 09:04:00;;;;;;;0.52;0.10;;;20.90;56.50;;;20.26;40.75;99889.47;5067230;28;20029;-48
2021/04/28 09:06:34;;;;;;;0.65;0.17;;;21.00;55.90;;;20.63;41.03;99881.50;5067571;28;20164;-49
2021/04/28 09:09:11;;;;;;;7.25;0.10;;;21.00;57.40;;;20.64;40.63;99883.13;5066319;28;20029;-47
2021/04/28 09:11:47;;;;;;;0.30;0.10;;;21.20;57.10;;;20.56;40.13;99886.88;5066140;28;20044;-48
2021/04/28 09:14:24;;;;;;;0.10;0.10;;;21.20;56.00;;;20.49;40.16;99889.59;5067054;28;20123;-46
2021/04/28 09:17:05;;;;;;;1.35;0.30;;;21.20;56.10;;;20.19;40.01;99883.44;5067220;28;20035;-46
2021/04/28 09:22:10;;;;;;;2.15;0.85;;;20.60;56.80;;;20.61;40.81;99878.28;5067060;28;20594;-45
2021/04/28 09:24:48;;;;;;;0.50;0.10;;;20.90;57.40;;;21.05;40.44;99879.69;5066703;28;20029;-48
2021/04/28 09:27:35;;;;;;;1.50;0.10;;;21.30;57.40;;;20.67;39.22;99878.19;5067116;28;20033;-44
2021/04/28 09:30:07;;;;;;;2.38;0.10;;;21.30;54.90;;;20.24;40.96;99882.78;5067002;28;20060;-45
2021/04/28 09:32:37;;;;;;;0.85;0.10;;;20.90;56.70;;;20.28;40.79;99879.47;5065383;28;20142;-46
2021/04/28 09:35:19;;;;;;;0.30;0.10;;;20.80;56.80;;;20.53;39.84;99876.75;5065404;28;20396;-48
2021/04/28 09:37:59;;;;;;;0.38;0.10;;;20.90;56.00;;;20.64;39.60;99878.63;5066713;28;20111;-46
2021/04/28 09:40:49;;;;;;;0.85;0.10;;;21.10;56.50;;;20.14;40.10;99878.81;5066822;28;20108;-46
2021/04/28 09:43:15;;;;;;;1.15;0.10;;;20.90;55.50;;;20.27;41.10;99882.34;5066752;28;20478;-45
2021/04/28 09:45:47;;;;;;;1.02;0.10;;;20.60;57.30;;;20.50;40.73;99872.69;5067090;28;20604;-49
2021/04/28 09:48:23;;;;;;;0.38;0.10;;;20.80;57.40;;;20.20;40.59;99880.59;5066758;28;20040;-48
2021/04/28 09:50:50;;;;;;;;;;;20.90;56.20;;;20.21;39.76;99873.47;5067420;28;20032;-44
2021/04/28 09:53:26;;;;;;;0.35;0.10;;;20.70;55.80;;;20.17;40.76;99881.03;5066826;28;19916;-45
2021/04/28 09:55:53;;;;;;;0.30;0.10;;;20.60;56.80;;;20.17;40.68;99873.09;5066761;28;20480;-46
2021/04/28 09:58:50;;;;;;;0.70;0.13;;;20.70;56.70;;;20.31;39.64;99870.28;5067116;28;20036;-46
2021/04/28 10:01:34;;;;;;;1.08;0.10;;;20.70;56.50;;;20.57;40.23;99861.22;5067132;28;20066;-44
2021/04/28 10:04:03;;;;;;;3.20;0.20;;;20.90;57.00;;;21.20;40.13;99857.03;5064964;28;20037;-48
2021/04/28 10:06:49;;;;;;;0.20;0.10;;;21.40;57.20;;;21.02;39.82;99858.94;5062706;28;20448;-45
2021/04/28 10:09:38;;;;;;;0.40;0.10;;;21.60;56.20;;;21.56;38.97;99851.78;5064896;28;20607;-46
2021/04/28 10:12:11;;;;;;;0.28;0.10;;;21.80;56.30;;;21.19;39.95;99849.31;5066800;28;20230;-45
2021/04/28 10:14:38;;;;;;;0.88;0.10;;;21.90;56.00;;;21.38;39.55;99852.69;5060477;28;20064;-47
2021/04/28 10:17:07;;;;;;;0.28;0.10;;;21.80;55.90;;;20.74;39.63;99852.44;5063517;28;20059;-47
2021/04/28 10:19:36;;;;;;;0.38;0.10;;;21.50;55.30;;;19.81;41.03;99863.31;5066938;28;20107;-48
2021/04/28 10:22:15;;;;;;;0.20;0.00;;;20.90;55.70;;;19.49;41.85;99838.78;5067433;28;20040;-48
2021/04/28 10:24:45;;;;;;;0.20;0.10;;;20.20;57.30;;;20.27;41.01;99848.78;5069354;28;20064;-46
2021/04/28 10:27:16;;;;;;;0.20;0.10;;;20.50;57.60;;;20.70;40.38;99848.63;5052754;28;20043;-45
2021/04/28 10:29:43;;;;;;;0.32;0.13;;;20.90;57.30;;;20.79;40.14;99844.63;5070505;28;20119;-45
2021/04/28 10:32:14;;;;;;;0.20;0.10;;;21.10;56.60;;;20.52;39.78;99849.47;5051981;28;20492;-49
2021/04/28 10:35:01;;;;;;;1.98;0.13;;;21.00;56.00;;;20.48;40.06;99853.59;5070434;28;20425;-48